createdAt,value
2022-08-02T00:04:26.818Z,1.35
2022-08-02T00:09:32.145Z,0.93
2022-08-02T00:12:06.576Z,0.77
2022-08-02T00:14:39.605Z,1.00
2022-08-02T00:19:45.434Z,1.20
2022-08-02T00:22:18.432Z,0.98
2022-08-02T00:27:26.343Z,0.98
2022-08-02T00:29:59.148Z,0.70
2022-08-02T00:32:31.826Z,1.08
2022-08-02T00:35:04.957Z,0.70
2022-08-02T00:37:40.518Z,1.10
2022-08-02T00:40:13.612Z,0.77
2022-08-02T00:42:47.739Z,0.88
2022-08-02T00:45:20.509Z,0.75
2022-08-02T00:48:14.090Z,0.80
2022-08-02T00:50:46.745Z,0.80
2022-08-02T00:53:19.564Z,0.82
2022-08-02T00:55:52.458Z,0.88
2022-08-02T01:01:01.050Z,0.95
2022-08-02T01:03:33.802Z,0.95
2022-08-02T01:06:14.380Z,0.82
2022-08-02T01:08:47.118Z,1.45
2022-08-02T01:11:20.005Z,1.15
2022-08-02T01:13:54.551Z,0.65
2022-08-02T01:16:32.068Z,0.73
2022-08-02T01:19:16.201Z,0.90
2022-08-02T01:22:03.124Z,0.90
2022-08-02T01:24:55.706Z,0.95
2022-08-02T01:27:40.031Z,1.17
2022-08-02T01:30:15.622Z,0.93
2022-08-02T01:32:54.642Z,0.90
2022-08-02T01:35:50.914Z,1.48
2022-08-02T01:38:31.975Z,0.88
2022-08-02T01:41:06.239Z,0.77
2022-08-02T01:43:41.389Z,0.63
2022-08-02T01:46:17.628Z,0.80
2022-08-02T01:48:51.717Z,1.05
2022-08-02T01:51:42.233Z,0.73
2022-08-02T01:54:18.479Z,0.55
2022-08-02T01:56:52.246Z,0.77
2022-08-02T01:59:27.193Z,0.80
2022-08-02T02:02:02.557Z,0.77
2022-08-02T02:04:36.966Z,0.77
2022-08-02T02:07:10.742Z,0.70
2022-08-02T02:09:50.726Z,0.80
2022-08-02T02:12:25.594Z,0.80
2022-08-02T02:15:01.225Z,0.80
2022-08-02T02:17:50.751Z,1.00
2022-08-02T02:20:30.176Z,0.95
2022-08-02T02:23:03.163Z,0.90
2022-08-02T02:25:41.783Z,0.90
2022-08-02T02:28:24.401Z,0.75
2022-08-02T02:31:03.101Z,0.80
2022-08-02T02:33:49.733Z,0.77
2022-08-02T02:36:23.857Z,0.90
2022-08-02T02:39:00.558Z,0.75
2022-08-02T02:41:35.064Z,0.85
2022-08-02T02:44:11.050Z,1.05
2022-08-02T02:46:45.344Z,1.05
2022-08-02T02:49:21.275Z,0.80
2022-08-02T02:51:55.203Z,0.70
2022-08-02T02:54:34.598Z,0.85
2022-08-02T02:57:09.315Z,0.80
2022-08-02T02:59:49.154Z,0.77
2022-08-02T03:02:23.058Z,0.70
2022-08-02T03:04:58.317Z,0.77
2022-08-02T03:07:33.502Z,0.88
2022-08-02T03:10:08.074Z,0.90
2022-08-02T03:12:40.872Z,1.48
2022-08-02T03:15:15.079Z,1.10
2022-08-02T03:17:48.317Z,0.68
2022-08-02T03:20:23.555Z,0.52
2022-08-02T03:22:56.295Z,1.17
2022-08-02T03:25:28.965Z,0.90
2022-08-02T03:28:01.632Z,1.30
2022-08-02T03:30:34.529Z,0.98
2022-08-02T03:33:07.252Z,0.80
2022-08-02T03:35:42.615Z,0.98
2022-08-02T03:38:18.516Z,0.90
2022-08-02T03:40:52.417Z,0.82
2022-08-02T03:43:28.666Z,0.85
2022-08-02T03:46:03.940Z,0.82
2022-08-02T03:48:39.066Z,1.10
2022-08-02T03:51:14.085Z,0.98
2022-08-02T03:53:47.490Z,1.20
2022-08-02T03:56:22.990Z,0.90
2022-08-02T03:59:07.106Z,1.02
2022-08-02T04:01:40.345Z,0.90
2022-08-02T04:04:13.668Z,0.90
2022-08-02T04:06:47.708Z,1.08
2022-08-02T04:09:20.777Z,0.95
2022-08-02T04:11:53.525Z,0.90
2022-08-02T04:14:27.627Z,0.90
2022-08-02T04:17:05.486Z,0.80
2022-08-02T04:19:41.714Z,0.90
2022-08-02T04:22:19.437Z,1.00
2022-08-02T04:24:55.418Z,1.33
2022-08-02T04:27:50.929Z,2.05
2022-08-02T04:30:23.017Z,1.30
2022-08-02T04:32:56.335Z,1.60
2022-08-02T04:35:29.401Z,1.10
2022-08-02T04:38:09.913Z,0.90
2022-08-02T04:40:52.250Z,1.30
2022-08-02T04:43:25.186Z,0.82
2022-08-02T04:45:58.050Z,1.00
2022-08-02T04:48:30.834Z,0.90
2022-08-02T04:51:03.511Z,1.00
2022-08-02T04:53:37.666Z,1.20
2022-08-02T04:56:11.243Z,1.98
2022-08-02T04:58:44.079Z,1.95
2022-08-02T05:01:17.010Z,2.38
2022-08-02T05:06:23.860Z,2.20
2022-08-02T05:08:58.210Z,2.00
2022-08-02T05:11:36.138Z,2.08
2022-08-02T05:14:09.674Z,1.90
2022-08-02T05:16:42.450Z,2.75
2022-08-02T05:19:15.254Z,2.60
2022-08-02T05:21:48.265Z,2.53
2022-08-02T05:24:22.310Z,2.67
2022-08-02T05:26:55.395Z,2.90
2022-08-02T05:32:01.456Z,3.15
2022-08-02T05:34:34.167Z,3.00
2022-08-02T05:39:55.536Z,3.33
2022-08-02T05:42:32.103Z,3.63
2022-08-02T05:45:06.009Z,3.58
2022-08-02T05:47:39.656Z,3.92
2022-08-02T05:50:12.506Z,4.45
2022-08-02T05:52:49.732Z,5.70
2022-08-02T05:55:28.374Z,6.20
2022-08-02T05:58:06.917Z,6.60
2022-08-02T06:00:42.158Z,5.65
2022-08-02T06:03:25.528Z,6.75
2022-08-02T06:06:01.709Z,6.88
2022-08-02T06:08:43.437Z,7.95
2022-08-02T06:11:23.469Z,9.02
2022-08-02T06:13:56.721Z,9.90
2022-08-02T06:16:32.060Z,12.35
2022-08-02T06:19:06.487Z,10.77
2022-08-02T06:22:31.753Z,12.63
2022-08-02T06:24:35.514Z,14.48
2022-08-02T06:27:09.708Z,16.88
2022-08-02T06:29:44.243Z,14.68
2022-08-02T06:32:19.133Z,14.88
2022-08-02T06:34:51.845Z,14.10
2022-08-02T06:37:31.741Z,14.48
2022-08-02T06:40:15.826Z,12.57
2022-08-02T06:42:56.995Z,13.40
2022-08-02T06:45:29.838Z,14.15
2022-08-02T06:48:03.458Z,14.57
2022-08-02T06:50:38.252Z,14.73
2022-08-02T06:53:12.279Z,17.40
2022-08-02T06:55:45.097Z,14.77
2022-08-02T06:58:22.006Z,14.52
2022-08-02T07:00:54.870Z,14.55
2022-08-02T07:03:27.933Z,14.43
2022-08-02T07:06:01.391Z,17.15
2022-08-02T07:08:36.105Z,13.38
2022-08-02T07:11:10.669Z,12.77
2022-08-02T07:13:46.354Z,12.57
2022-08-02T07:16:19.127Z,12.60
2022-08-02T07:18:51.790Z,12.85
2022-08-02T07:21:56.743Z,10.18
2022-08-02T07:24:17.194Z,13.27
2022-08-02T07:27:10.713Z,11.98
2022-08-02T07:29:46.445Z,10.95
2022-08-02T07:32:21.642Z,11.40
2022-08-02T07:34:55.621Z,11.68
2022-08-02T07:37:54.115Z,10.10
2022-08-02T07:40:25.367Z,8.68
2022-08-02T07:43:03.592Z,10.45
2022-08-02T07:45:55.871Z,11.40
2022-08-02T07:48:30.865Z,10.73
2022-08-02T07:51:03.576Z,11.20
2022-08-02T07:53:50.723Z,11.13
2022-08-02T07:56:24.623Z,12.52
2022-08-02T08:01:31.538Z,11.10
2022-08-02T08:04:04.790Z,10.27
2022-08-02T08:06:37.829Z,9.77
2022-08-02T08:09:10.871Z,10.18
2022-08-02T08:14:17.170Z,8.77
2022-08-02T08:16:51.206Z,7.60
2022-08-02T08:19:43.908Z,5.95
2022-08-02T08:22:17.636Z,5.38
2022-08-02T08:24:51.337Z,6.63
2022-08-02T08:27:24.264Z,5.88
2022-08-02T08:29:57.272Z,5.80
2022-08-02T08:32:31.389Z,5.60
2022-08-02T08:35:06.963Z,6.03
2022-08-02T08:37:40.552Z,4.63
2022-08-02T08:40:19.334Z,4.65
2022-08-02T08:42:53.160Z,5.03
2022-08-02T08:45:26.250Z,4.10
2022-08-02T08:48:02.773Z,4.43
2022-08-02T08:50:39.480Z,3.80
2022-08-02T08:53:13.764Z,3.67
2022-08-02T08:55:46.884Z,4.18
2022-08-02T09:00:52.273Z,3.90
2022-08-02T09:03:26.872Z,3.92
2022-08-02T09:06:07.168Z,4.55
2022-08-02T09:08:39.845Z,3.72
2022-08-02T09:11:17.711Z,3.83
2022-08-02T09:13:52.427Z,5.53
2022-08-02T09:16:30.827Z,4.20
2022-08-02T09:19:18.881Z,4.35
2022-08-02T09:21:52.630Z,3.42
2022-08-02T09:24:25.961Z,3.70
2022-08-02T09:27:11.926Z,3.42
2022-08-02T09:30:12.666Z,4.28
2022-08-02T09:32:46.373Z,4.53
2022-08-02T09:36:05.364Z,4.28
2022-08-02T09:38:27.936Z,4.18
2022-08-02T09:41:01.479Z,3.97
2022-08-02T09:44:03.611Z,4.15
2022-08-02T09:46:36.252Z,4.65
2022-08-02T09:49:11.493Z,4.10
2022-08-02T09:51:52.730Z,4.43
2022-08-02T09:54:29.130Z,4.03
2022-08-02T09:57:03.104Z,4.10
2022-08-02T09:59:35.871Z,4.03
2022-08-02T10:04:55.349Z,4.22
2022-08-02T10:07:30.291Z,3.47
2022-08-02T10:10:03.542Z,3.47
2022-08-02T10:12:37.849Z,3.70
2022-08-02T10:15:17.570Z,3.47
2022-08-02T10:17:50.634Z,2.72
2022-08-02T10:22:59.770Z,3.03
2022-08-02T10:25:33.356Z,3.63
2022-08-02T10:28:07.686Z,2.80
2022-08-02T10:30:43.721Z,2.90
2022-08-02T10:33:20.028Z,2.90
2022-08-02T10:36:04.504Z,3.50
2022-08-02T10:38:41.996Z,2.95
2022-08-02T10:41:14.796Z,2.38
2022-08-02T10:43:49.959Z,2.55
2022-08-02T10:46:32.820Z,2.85
2022-08-02T10:52:08.012Z,2.78
2022-08-02T10:54:44.526Z,1.77
2022-08-02T10:57:20.221Z,2.20
2022-08-02T10:59:56.232Z,1.98
2022-08-02T11:02:38.048Z,2.63
2022-08-02T11:05:14.205Z,2.23
2022-08-02T11:07:49.389Z,2.40
2022-08-02T11:10:35.712Z,2.05
2022-08-02T11:13:11.848Z,1.85
2022-08-02T11:15:57.066Z,2.25
2022-08-02T11:19:03.989Z,2.08
2022-08-02T11:21:44.414Z,2.20
2022-08-02T11:24:32.277Z,1.65
2022-08-02T11:27:09.622Z,1.90
2022-08-02T11:29:44.691Z,2.10
2022-08-02T11:32:19.502Z,1.90
2022-08-02T11:34:54.812Z,1.92
2022-08-02T11:37:30.944Z,2.30
2022-08-02T11:40:04.025Z,2.10
2022-08-02T11:42:40.187Z,2.38
2022-08-02T11:45:21.338Z,1.55
2022-08-02T11:47:55.606Z,1.60
2022-08-02T11:50:30.359Z,2.45
2022-08-02T11:53:03.320Z,1.90
2022-08-02T11:55:36.069Z,2.35
2022-08-02T11:58:11.656Z,1.70
2022-08-02T12:00:47.037Z,2.40
2022-08-02T12:03:20.197Z,1.70
2022-08-02T12:06:04.712Z,2.20
2022-08-02T12:08:38.928Z,2.22
2022-08-02T12:11:11.634Z,1.95
2022-08-02T12:13:57.035Z,1.85
2022-08-02T12:16:53.422Z,2.40
2022-08-02T12:19:27.862Z,2.67
2022-08-02T12:22:18.770Z,2.10
2022-08-02T12:24:52.837Z,1.98
2022-08-02T12:27:30.941Z,3.22
2022-08-02T12:30:08.295Z,2.25
2022-08-02T12:32:41.823Z,2.83
2022-08-02T12:35:25.972Z,2.70
2022-08-02T12:37:58.916Z,2.63
2022-08-02T12:40:34.439Z,2.00
2022-08-02T12:43:09.786Z,2.75
2022-08-02T12:45:50.538Z,2.20
2022-08-02T12:48:37.714Z,2.28
2022-08-02T12:51:21.540Z,2.28
2022-08-02T12:53:59.585Z,2.35
2022-08-02T12:56:38.205Z,2.35
2022-08-02T12:59:11.334Z,3.03
2022-08-02T13:01:45.971Z,2.85
2022-08-02T13:04:18.855Z,2.63
2022-08-02T13:06:51.609Z,2.63
2022-08-02T13:09:29.135Z,2.42
2022-08-02T13:12:02.113Z,2.72
2022-08-02T13:14:41.761Z,2.60
2022-08-02T13:17:16.362Z,2.30
2022-08-02T13:19:51.061Z,2.38
2022-08-02T13:22:26.076Z,2.13
2022-08-02T13:25:01.485Z,2.30
2022-08-02T13:27:34.818Z,2.25
2022-08-02T13:30:08.704Z,1.92
2022-08-02T13:32:42.790Z,2.33
2022-08-02T13:35:18.236Z,1.85
2022-08-02T13:37:51.236Z,2.60
2022-08-02T13:40:24.127Z,2.97
2022-08-02T13:42:57.601Z,2.17
2022-08-02T13:45:30.263Z,2.25
2022-08-02T13:48:16.646Z,2.60
2022-08-02T13:50:51.367Z,2.17
2022-08-02T13:53:24.173Z,2.00
2022-08-02T13:55:58.847Z,2.00
2022-08-02T13:58:31.654Z,2.10
2022-08-02T14:01:04.469Z,1.83
2022-08-02T14:04:07.802Z,2.28
2022-08-02T14:06:31.288Z,2.10
2022-08-02T14:09:04.145Z,1.80
2022-08-02T14:11:36.983Z,1.95
2022-08-02T14:14:16.057Z,2.22
2022-08-02T14:16:49.828Z,1.90
2022-08-02T14:19:24.168Z,2.00
2022-08-02T14:22:10.863Z,2.35
2022-08-02T14:24:45.168Z,2.13
2022-08-02T14:27:17.854Z,2.50
2022-08-02T14:29:51.311Z,2.75
2022-08-02T14:32:28.042Z,2.40
2022-08-02T14:35:07.395Z,2.35
2022-08-02T14:37:40.144Z,1.80
2022-08-02T14:40:27.872Z,2.40
2022-08-02T14:43:01.721Z,1.90
2022-08-02T14:45:36.624Z,1.98
2022-08-02T14:48:13.856Z,1.95
2022-08-02T14:50:47.906Z,1.88
2022-08-02T14:53:20.669Z,1.80
2022-08-02T14:55:53.457Z,2.08
2022-08-02T14:58:26.244Z,1.92
2022-08-02T15:00:59.097Z,2.15
2022-08-02T15:03:31.987Z,2.05
2022-08-02T15:06:17.977Z,2.15
2022-08-02T15:08:50.739Z,2.28
2022-08-02T15:11:23.444Z,2.28
2022-08-02T15:13:59.117Z,2.53
2022-08-02T15:16:55.626Z,1.95
2022-08-02T15:19:56.672Z,2.05
2022-08-02T15:22:23.022Z,2.58
2022-08-02T15:24:55.744Z,2.80
2022-08-02T15:27:28.587Z,2.42
2022-08-02T15:30:01.296Z,2.65
2022-08-02T15:32:33.983Z,2.15
2022-08-02T15:35:07.898Z,2.60
2022-08-02T15:37:42.015Z,2.83
2022-08-02T15:40:14.787Z,2.58
2022-08-02T15:42:47.699Z,3.20
2022-08-02T15:45:20.402Z,2.22
2022-08-02T15:47:53.062Z,2.60
2022-08-02T15:50:25.797Z,2.50
2022-08-02T15:52:59.894Z,2.63
2022-08-02T15:55:39.871Z,2.40
2022-08-02T15:58:26.401Z,3.53
2022-08-02T16:00:59.887Z,2.92
2022-08-02T16:03:32.591Z,2.75
2022-08-02T16:06:05.462Z,3.38
2022-08-02T16:08:51.703Z,3.08
2022-08-02T16:11:27.499Z,2.88
2022-08-02T16:14:00.199Z,2.22
2022-08-02T16:16:34.984Z,2.65
2022-08-02T16:19:46.499Z,3.75
2022-08-02T16:22:01.326Z,2.47
2022-08-02T16:24:35.387Z,2.88
2022-08-02T16:27:09.396Z,2.20
2022-08-02T16:29:42.143Z,2.70
2022-08-02T16:32:16.421Z,1.90
2022-08-02T16:35:07.854Z,1.73
2022-08-02T16:37:51.550Z,2.50
2022-08-02T16:40:27.055Z,1.67
2022-08-02T16:43:00.353Z,2.42
2022-08-02T16:45:33.119Z,1.88
2022-08-02T16:48:07.691Z,2.10
2022-08-02T16:50:46.299Z,2.38
2022-08-02T16:53:36.249Z,1.60
2022-08-02T16:56:12.195Z,1.45
2022-08-02T16:58:47.947Z,1.45
2022-08-02T17:01:27.365Z,1.40
2022-08-02T17:04:00.577Z,1.13
2022-08-02T17:06:33.245Z,1.10
2022-08-02T17:09:06.405Z,0.95
2022-08-02T17:11:45.511Z,1.63
2022-08-02T17:14:19.688Z,1.17
2022-08-02T17:16:52.947Z,1.25
2022-08-02T17:19:26.019Z,1.45
2022-08-02T17:21:58.762Z,1.48
2022-08-02T17:24:31.526Z,1.77
2022-08-02T17:27:05.688Z,1.30
2022-08-02T17:29:42.136Z,1.35
2022-08-02T17:32:15.518Z,1.35
2022-08-02T17:35:00.050Z,1.20
2022-08-02T17:37:41.570Z,1.48
2022-08-02T17:40:14.712Z,1.45
2022-08-02T17:42:53.939Z,2.03
2022-08-02T17:45:27.956Z,2.53
2022-08-02T17:48:19.395Z,1.60
2022-08-02T17:51:01.968Z,2.30
2022-08-02T17:56:09.261Z,1.75
2022-08-02T17:58:53.710Z,1.40
2022-08-02T18:01:26.868Z,1.42
2022-08-02T18:04:05.099Z,1.80
2022-08-02T18:06:39.300Z,1.02
2022-08-02T18:09:12.634Z,1.42
2022-08-02T18:11:52.014Z,2.03
2022-08-02T18:14:27.406Z,1.52
2022-08-02T18:17:00.203Z,1.67
2022-08-02T18:19:42.334Z,1.20
2022-08-02T18:22:26.581Z,1.67
2022-08-02T18:24:59.559Z,1.40
2022-08-02T18:30:08.542Z,1.30
2022-08-02T18:33:56.891Z,1.00
2022-08-02T18:35:34.032Z,1.05
2022-08-02T18:38:11.009Z,1.52
2022-08-02T18:40:44.955Z,0.93
2022-08-02T18:43:25.355Z,1.15
2022-08-02T18:46:05.687Z,1.20
2022-08-02T18:48:48.359Z,0.85
2022-08-02T18:51:21.253Z,0.73
2022-08-02T18:53:54.313Z,0.82
2022-08-02T18:56:27.216Z,0.88
2022-08-02T18:59:05.605Z,0.70
2022-08-02T19:01:50.282Z,0.90
2022-08-02T19:04:27.863Z,0.82
2022-08-02T19:07:07.530Z,0.90
2022-08-02T19:09:40.985Z,1.17
2022-08-02T19:12:14.170Z,1.17
2022-08-02T19:14:48.304Z,1.17
2022-08-02T19:17:55.565Z,1.17
2022-08-02T19:20:19.345Z,1.00
2022-08-02T19:22:53.530Z,1.38
2022-08-02T19:25:27.865Z,0.90
2022-08-02T19:28:00.968Z,1.30
2022-08-02T19:30:34.830Z,0.93
2022-08-02T19:33:09.838Z,1.13
2022-08-02T19:38:49.032Z,0.77
2022-08-02T19:41:22.437Z,1.05
2022-08-02T19:44:23.977Z,1.00
2022-08-02T19:46:57.286Z,0.75
2022-08-02T19:49:40.103Z,1.25
2022-08-02T19:56:00.188Z,1.25
2022-08-02T19:58:03.366Z,1.08
2022-08-02T20:00:36.321Z,1.80
2022-08-02T20:03:10.333Z,1.35
2022-08-02T20:05:50.455Z,1.30
2022-08-02T20:08:31.807Z,1.35
2022-08-02T20:11:15.040Z,2.78
2022-08-02T20:13:52.173Z,1.83
2022-08-02T20:16:27.813Z,1.80
2022-08-02T20:19:01.520Z,2.17
2022-08-02T20:21:37.792Z,1.88
2022-08-02T20:24:15.865Z,1.88
2022-08-02T20:26:48.950Z,1.20
2022-08-02T20:29:43.269Z,1.27
2022-08-02T20:32:21.439Z,1.85
2022-08-02T20:34:55.856Z,1.40
2022-08-02T20:37:55.914Z,1.70
2022-08-02T20:40:27.647Z,1.40
2022-08-02T20:43:01.005Z,1.75
2022-08-02T20:45:33.936Z,1.33
2022-08-02T20:48:07.706Z,1.55
2022-08-02T20:50:52.214Z,1.10
2022-08-02T20:53:30.065Z,1.48
2022-08-02T20:56:03.115Z,1.65
2022-08-02T21:03:42.151Z,1.50
2022-08-02T21:06:17.065Z,1.65
2022-08-02T21:08:51.577Z,1.70
2022-08-02T21:11:25.542Z,1.67
2022-08-02T21:14:08.749Z,1.40
2022-08-02T21:16:42.012Z,1.58
2022-08-02T21:19:15.931Z,1.42
2022-08-02T21:21:48.734Z,1.38
2022-08-02T21:24:24.693Z,1.42
2022-08-02T21:26:58.128Z,1.45
2022-08-02T21:29:33.291Z,1.42
2022-08-02T21:32:06.876Z,1.80
2022-08-02T21:34:40.411Z,1.70
2022-08-02T21:39:51.340Z,2.13
2022-08-02T21:42:28.650Z,1.83
2022-08-02T21:45:04.941Z,1.70
2022-08-02T21:47:51.462Z,1.80
2022-08-02T21:50:27.063Z,2.30
2022-08-02T21:53:00.437Z,1.60
2022-08-02T21:56:01.067Z,1.88
2022-08-02T21:58:28.402Z,1.55
2022-08-02T22:03:34.581Z,2.10
2022-08-02T22:06:08.224Z,2.15
2022-08-02T22:14:08.047Z,1.80
2022-08-02T22:19:14.016Z,1.60
2022-08-02T22:24:40.062Z,1.48
2022-08-02T22:27:17.506Z,1.60
2022-08-02T22:29:52.686Z,1.20
2022-08-02T22:32:43.449Z,1.80
2022-08-02T22:35:21.402Z,1.45
2022-08-02T22:38:15.434Z,1.55
2022-08-02T22:40:48.266Z,1.40
2022-08-02T22:43:23.642Z,1.63
2022-08-02T22:45:56.736Z,2.05
2022-08-02T22:51:14.435Z,1.83
2022-08-02T22:53:48.449Z,1.75
2022-08-02T22:56:22.109Z,1.67
2022-08-02T22:58:52.547Z,1.08
2022-08-02T22:59:04.209Z,1.52
2022-08-02T22:59:04.668Z,1.92
2022-08-02T22:59:10.285Z,1.13
2022-08-02T23:01:48.692Z,1.98
2022-08-02T23:06:54.505Z,1.65
2022-08-02T23:12:00.198Z,1.65
2022-08-02T23:17:25.982Z,1.50
2022-08-02T23:19:59.113Z,1.92
2022-08-02T23:22:33.165Z,1.60
2022-08-02T23:25:07.890Z,2.00
2022-08-02T23:27:49.618Z,1.20
2022-08-02T23:30:25.413Z,1.85
2022-08-02T23:33:00.681Z,1.40
2022-08-02T23:35:35.172Z,1.70
2022-08-02T23:40:41.327Z,2.28
2022-08-02T23:43:15.439Z,2.03
2022-08-02T23:45:49.741Z,2.58
2022-08-02T23:48:22.799Z,1.80
2022-08-02T23:53:30.173Z,2.60
2022-08-02T23:56:03.263Z,2.03
2022-08-02T23:58:36.413Z,2.15
